aviador You're here:

KTYS Decoded Metar

KNOXVILLE in TN, USA
Report Time2017-08-22 02:53:00
UTC Time2017-08-22 03:21:08
Flight Rules vfr VFR
WindCalm
Visibility9999 m
Phenomena:N/A
Clouds:N/A
Expected CloudBase > 1,600 ft AGL from Temp-Dew spread
CeilingNone
Temp25°C (ISA +12)
Dew Point21°C (79% RH)
QNH1021 hPa
Density Alt2,438 ft
Elevation991 ft
Report Wrong Elevation
Raw Report
METAR KTYS 220253Z 00000KT 10SM CLR 25/21 A3016 RMK AO2 SLP201 T02500211
53010=

Extra information for KTYS:More info

Metar Taf Metar & Taf Last 4 Metars F.Rules Stats Wind Profile Meteogram Temp Stats Airport Information Weather charts Add Link Nearby VenuesMetar ALERT Operation Metar Decoded Social comments

AIRNAV info for KTYS